createdAt,value
2023-05-05T00:00:22.595Z,16.70
2023-05-05T00:01:22.588Z,16.60
2023-05-05T00:02:22.642Z,17.40
2023-05-05T00:03:22.630Z,16.20
2023-05-05T00:04:22.768Z,17.50
2023-05-05T00:05:22.545Z,14.90
2023-05-05T00:06:22.534Z,14.80
2023-05-05T00:07:22.553Z,17.20
2023-05-05T00:08:22.545Z,15.00
2023-05-05T00:09:22.514Z,14.80
2023-05-05T00:10:22.506Z,14.50
2023-05-05T00:11:22.481Z,15.00
2023-05-05T00:12:22.510Z,14.70
2023-05-05T00:13:22.454Z,14.70
2023-05-05T00:14:22.515Z,15.50
2023-05-05T00:15:22.439Z,14.80
2023-05-05T00:16:22.460Z,17.20
2023-05-05T00:17:22.435Z,14.50
2023-05-05T00:18:22.425Z,14.60
2023-05-05T00:19:22.406Z,15.20
2023-05-05T00:20:22.396Z,14.60
2023-05-05T00:21:22.450Z,14.20
2023-05-05T00:22:22.419Z,15.10
2023-05-05T00:23:22.355Z,13.60
2023-05-05T00:24:22.371Z,15.50
2023-05-05T00:25:22.345Z,15.70
2023-05-05T00:26:22.374Z,14.80
2023-05-05T00:27:22.322Z,16.50
2023-05-05T00:28:22.307Z,15.80
2023-05-05T00:29:22.320Z,15.70
2023-05-05T00:30:22.345Z,14.80
2023-05-05T00:31:22.356Z,16.20
2023-05-05T00:32:22.293Z,14.70
2023-05-05T00:33:22.249Z,14.80
2023-05-05T00:34:22.272Z,16.90
2023-05-05T00:35:22.279Z,14.30
2023-05-05T00:36:22.240Z,16.10
2023-05-05T00:37:22.231Z,15.30
2023-05-05T00:38:22.209Z,15.30
2023-05-05T00:39:22.212Z,15.40
2023-05-05T00:40:22.233Z,15.70
2023-05-05T00:41:22.178Z,15.90
2023-05-05T00:42:22.177Z,15.60
2023-05-05T00:43:22.140Z,17.90
2023-05-05T00:44:22.185Z,16.40
2023-05-05T00:45:22.150Z,14.70
2023-05-05T00:46:22.162Z,16.70
2023-05-05T00:47:22.127Z,16.20
2023-05-05T00:48:22.135Z,15.50
2023-05-05T00:49:22.147Z,13.20
2023-05-05T00:50:22.082Z,15.20
2023-05-05T00:51:22.079Z,13.00
2023-05-05T00:52:22.058Z,15.10
2023-05-05T00:53:22.061Z,14.20
2023-05-05T00:54:22.089Z,14.70
2023-05-05T00:55:22.049Z,13.90
2023-05-05T00:56:22.098Z,14.90
2023-05-05T00:57:22.000Z,15.50
2023-05-05T00:58:21.994Z,15.20
2023-05-05T00:59:22.022Z,12.80
2023-05-05T01:00:21.999Z,14.70
2023-05-05T01:01:21.984Z,14.10
2023-05-05T01:02:21.964Z,16.30
2023-05-05T01:03:22.103Z,14.80
2023-05-05T01:04:21.956Z,14.60
2023-05-05T01:05:21.923Z,15.10
2023-05-05T01:06:21.924Z,13.60
2023-05-05T01:07:21.916Z,13.20
2023-05-05T01:08:21.937Z,15.20
2023-05-05T01:09:21.895Z,13.50
2023-05-05T01:10:22.206Z,14.90
2023-05-05T01:11:21.871Z,15.00
2023-05-05T01:12:21.883Z,14.20
2023-05-05T01:13:21.861Z,14.70
2023-05-05T01:14:21.866Z,14.80
2023-05-05T01:15:21.820Z,15.40
2023-05-05T01:16:21.842Z,14.60
2023-05-05T01:17:21.888Z,14.80
2023-05-05T01:18:21.791Z,14.60
2023-05-05T01:19:21.787Z,15.20
2023-05-05T01:20:21.784Z,15.10
2023-05-05T01:21:21.762Z,13.20
2023-05-05T01:22:21.796Z,14.10
2023-05-05T01:23:21.745Z,15.20
2023-05-05T01:24:21.751Z,14.50
2023-05-05T01:25:21.732Z,14.30
2023-05-05T01:26:21.747Z,14.40
2023-05-05T01:27:21.724Z,13.90
2023-05-05T01:28:21.684Z,12.50
2023-05-05T01:29:21.696Z,14.60
2023-05-05T01:30:21.676Z,14.50
2023-05-05T01:31:21.716Z,15.40
2023-05-05T01:32:21.672Z,17.90
2023-05-05T01:33:21.642Z,16.40
2023-05-05T01:34:21.645Z,16.70
2023-05-05T01:35:21.640Z,15.30
2023-05-05T01:36:21.640Z,16.40
2023-05-05T01:37:21.610Z,17.00
2023-05-05T01:38:21.637Z,14.20
2023-05-05T01:39:21.585Z,17.70
2023-05-05T01:40:21.595Z,14.20
2023-05-05T01:41:21.593Z,16.30
2023-05-05T01:42:21.550Z,14.60
2023-05-05T01:43:21.536Z,13.30
2023-05-05T01:44:21.528Z,14.90
2023-05-05T01:45:21.538Z,15.70
2023-05-05T01:46:21.590Z,16.30
2023-05-05T01:47:21.519Z,15.70
2023-05-05T01:48:21.480Z,15.70
2023-05-05T01:49:21.499Z,14.10
2023-05-05T01:50:21.452Z,15.60
2023-05-05T01:51:21.437Z,15.50
2023-05-05T01:52:21.460Z,14.60
2023-05-05T01:53:21.420Z,15.10
2023-05-05T01:54:21.450Z,14.90
2023-05-05T01:55:21.420Z,13.70
2023-05-05T01:56:21.396Z,12.90
2023-05-05T01:57:21.395Z,16.20
2023-05-05T01:58:21.378Z,16.50
2023-05-05T01:59:21.373Z,13.80
2023-05-05T02:00:21.369Z,13.60
2023-05-05T02:01:21.406Z,15.70
2023-05-05T02:02:21.432Z,14.40
2023-05-05T02:03:21.374Z,14.20
2023-05-05T02:04:21.342Z,13.90
2023-05-05T02:05:21.298Z,14.60
2023-05-05T02:06:21.294Z,14.40
2023-05-05T02:07:21.288Z,14.80
2023-05-05T02:08:21.302Z,12.90
2023-05-05T02:09:21.291Z,14.10
2023-05-05T02:10:21.252Z,14.00
2023-05-05T02:11:21.237Z,13.70
2023-05-05T02:12:21.229Z,14.10
2023-05-05T02:13:21.314Z,14.20
2023-05-05T02:14:21.232Z,15.80
2023-05-05T02:15:21.196Z,16.00
2023-05-05T02:16:21.250Z,16.30
2023-05-05T02:17:21.181Z,16.10
2023-05-05T02:18:21.203Z,14.40
2023-05-05T02:19:21.174Z,15.20
2023-05-05T02:20:21.154Z,13.20
2023-05-05T02:21:21.136Z,13.60
2023-05-05T02:22:21.155Z,16.20
2023-05-05T02:23:21.151Z,13.90
2023-05-05T02:24:21.116Z,13.30
2023-05-05T02:25:21.095Z,14.20
2023-05-05T02:26:21.094Z,14.80
2023-05-05T02:27:21.101Z,12.30
2023-05-05T02:28:21.080Z,14.90
2023-05-05T02:29:21.066Z,15.60
2023-05-05T02:30:21.049Z,14.10
2023-05-05T02:31:21.045Z,13.90
2023-05-05T02:32:21.081Z,14.70
2023-05-05T02:33:21.010Z,15.10
2023-05-05T02:34:21.009Z,13.50
2023-05-05T02:35:21.039Z,13.40
2023-05-05T02:36:21.009Z,14.30
2023-05-05T02:37:20.968Z,14.00
2023-05-05T02:38:20.971Z,13.60
2023-05-05T02:39:20.956Z,15.60
2023-05-05T02:40:20.964Z,14.50
2023-05-05T02:41:20.962Z,16.00
2023-05-05T02:42:20.927Z,16.60
2023-05-05T02:43:21.045Z,14.50
2023-05-05T02:44:20.928Z,15.30
2023-05-05T02:45:20.928Z,15.30
2023-05-05T02:46:20.924Z,13.50
2023-05-05T02:47:20.875Z,13.40
2023-05-05T02:48:20.866Z,15.60
2023-05-05T02:49:20.853Z,14.50
2023-05-05T02:50:20.869Z,13.80
2023-05-05T02:51:20.829Z,15.00
2023-05-05T02:52:20.808Z,14.20
2023-05-05T02:53:20.806Z,15.10
2023-05-05T02:54:20.821Z,14.50
2023-05-05T02:55:20.819Z,14.30
2023-05-05T02:56:20.761Z,14.20
2023-05-05T02:57:20.779Z,17.10
2023-05-05T02:58:20.748Z,14.90
2023-05-05T02:59:20.781Z,14.80
2023-05-05T03:00:20.769Z,17.50
2023-05-05T03:01:20.747Z,13.90
2023-05-05T03:02:20.736Z,16.10
2023-05-05T03:03:20.725Z,15.20
2023-05-05T03:04:20.726Z,14.90
2023-05-05T03:05:20.698Z,15.30
2023-05-05T03:06:20.665Z,15.20
2023-05-05T03:07:20.683Z,15.20
2023-05-05T03:08:20.652Z,14.20
2023-05-05T03:09:20.601Z,14.90
2023-05-05T03:10:20.617Z,15.00
2023-05-05T03:11:20.568Z,14.10
2023-05-05T03:12:20.540Z,14.50
2023-05-05T03:13:20.565Z,14.20
2023-05-05T03:14:20.553Z,13.90
2023-05-05T03:15:20.522Z,15.60
2023-05-05T03:18:28.784Z,14.90
2023-05-05T03:19:29.699Z,15.40
2023-05-05T03:20:29.658Z,15.10
2023-05-05T03:21:29.657Z,14.10
2023-05-05T03:22:29.671Z,16.10
2023-05-05T03:23:29.668Z,13.90
2023-05-05T03:24:29.705Z,14.20
2023-05-05T03:25:29.616Z,15.60
2023-05-05T03:26:29.618Z,17.10
2023-05-05T03:27:29.694Z,13.80
2023-05-05T03:28:29.664Z,14.90
2023-05-05T03:29:29.573Z,14.70
2023-05-05T03:30:29.592Z,15.90
2023-05-05T03:31:29.580Z,15.40
2023-05-05T03:32:29.568Z,16.30
2023-05-05T03:33:29.545Z,15.20
2023-05-05T03:34:29.522Z,16.80
2023-05-05T03:35:29.551Z,15.00
2023-05-05T03:36:29.622Z,15.40
2023-05-05T03:37:29.574Z,14.20
2023-05-05T03:38:29.500Z,14.20
2023-05-05T03:39:29.474Z,14.00
2023-05-05T03:40:40.294Z,17.10
2023-05-05T03:41:29.498Z,12.70
2023-05-05T03:42:29.483Z,15.80
2023-05-05T03:43:29.424Z,17.20
2023-05-05T03:44:29.436Z,14.30
2023-05-05T03:45:29.416Z,15.50
2023-05-05T03:46:29.468Z,16.30
2023-05-05T03:47:29.425Z,16.20
2023-05-05T03:48:29.389Z,15.00
2023-05-05T03:49:29.385Z,15.20
2023-05-05T03:50:29.382Z,16.30
2023-05-05T03:51:29.380Z,14.70
2023-05-05T03:52:29.332Z,15.00
2023-05-05T03:53:29.318Z,14.70
2023-05-05T03:54:29.336Z,15.10
2023-05-05T03:55:29.334Z,14.10
2023-05-05T03:56:29.316Z,14.40
2023-05-05T03:57:29.295Z,15.60
2023-05-05T03:58:29.290Z,17.00
2023-05-05T03:59:29.329Z,15.00
2023-05-05T04:00:29.334Z,13.80
2023-05-05T04:01:29.251Z,12.50
2023-05-05T04:02:29.347Z,14.70
2023-05-05T04:03:29.296Z,14.90
2023-05-05T04:04:29.307Z,16.00
2023-05-05T04:05:29.242Z,15.00
2023-05-05T04:06:29.203Z,14.50
2023-05-05T04:07:29.216Z,15.00
2023-05-05T04:08:29.170Z,13.50
2023-05-05T04:09:29.216Z,13.90
2023-05-05T04:10:29.183Z,14.60
2023-05-05T04:11:29.150Z,16.70
2023-05-05T04:12:29.134Z,15.20
2023-05-05T04:13:29.146Z,13.90
2023-05-05T04:14:29.190Z,15.00
2023-05-05T04:15:29.095Z,13.80
2023-05-05T04:16:29.096Z,15.70
2023-05-05T04:17:29.125Z,13.60
2023-05-05T04:18:29.111Z,15.20
2023-05-05T04:19:29.150Z,15.70
2023-05-05T04:20:29.056Z,15.20
2023-05-05T04:21:29.037Z,14.80
2023-05-05T04:22:29.027Z,13.30
2023-05-05T04:23:29.059Z,13.90
2023-05-05T04:24:29.064Z,14.80
2023-05-05T04:25:28.996Z,15.60
2023-05-05T04:26:29.097Z,14.90
2023-05-05T04:27:29.062Z,14.50
2023-05-05T04:28:29.000Z,14.20
2023-05-05T04:29:29.008Z,17.50
2023-05-05T04:30:29.105Z,13.90
2023-05-05T04:31:29.115Z,16.00
2023-05-05T04:32:29.166Z,14.80
2023-05-05T04:33:29.054Z,13.40
2023-05-05T04:34:28.945Z,16.00
2023-05-05T04:35:28.943Z,15.30
2023-05-05T04:36:29.022Z,13.80
2023-05-05T04:37:28.986Z,17.30
2023-05-05T04:38:28.902Z,14.90
2023-05-05T04:39:28.920Z,17.70
2023-05-05T04:40:28.862Z,17.10
2023-05-05T04:41:30.088Z,16.00
2023-05-05T04:42:28.852Z,13.80
2023-05-05T04:43:28.827Z,14.60
2023-05-05T04:44:28.839Z,14.60
2023-05-05T04:45:28.804Z,15.80
2023-05-05T04:46:28.865Z,13.50
2023-05-05T04:47:28.833Z,16.60
2023-05-05T04:48:28.776Z,15.40
2023-05-05T04:49:28.788Z,15.40
2023-05-05T04:50:28.803Z,16.00
2023-05-05T04:51:28.768Z,15.70
2023-05-05T04:52:28.764Z,16.40
2023-05-05T04:53:28.725Z,16.70
2023-05-05T04:54:29.203Z,16.60
2023-05-05T04:55:28.858Z,15.80
2023-05-05T04:56:28.740Z,14.40
2023-05-05T04:57:28.727Z,15.00
2023-05-05T04:58:28.761Z,13.60
2023-05-05T04:59:28.775Z,17.80
2023-05-05T05:00:33.787Z,14.50
2023-05-05T05:01:29.380Z,13.60
2023-05-05T05:02:29.278Z,14.40
2023-05-05T05:03:28.963Z,14.70
2023-05-05T05:04:29.193Z,13.30
2023-05-05T05:05:28.734Z,14.90
2023-05-05T05:06:28.636Z,16.30
2023-05-05T05:07:28.729Z,16.60
2023-05-05T05:08:28.603Z,15.40
2023-05-05T05:09:28.605Z,17.20
2023-05-05T05:10:28.603Z,14.10
2023-05-05T05:11:28.624Z,14.50
2023-05-05T05:12:28.561Z,15.70
2023-05-05T05:13:28.535Z,16.10
2023-05-05T05:14:28.545Z,16.20
2023-05-05T05:15:28.539Z,15.40
2023-05-05T05:16:28.554Z,16.30
2023-05-05T05:17:28.575Z,15.30
2023-05-05T05:18:28.809Z,17.30
2023-05-05T05:19:28.491Z,15.70
2023-05-05T05:20:28.923Z,17.00
2023-05-05T05:21:28.452Z,14.90
2023-05-05T05:22:28.642Z,14.30
2023-05-05T05:23:28.450Z,15.30
2023-05-05T05:24:28.545Z,14.10
2023-05-05T05:25:28.422Z,15.50
2023-05-05T05:26:34.775Z,13.30
2023-05-05T05:27:29.374Z,14.70
2023-05-05T05:28:28.458Z,13.70
2023-05-05T05:29:32.918Z,16.20
2023-05-05T05:30:29.292Z,14.40
2023-05-05T05:31:29.717Z,12.80
2023-05-05T05:32:28.392Z,15.30
2023-05-05T05:33:29.188Z,12.40
2023-05-05T05:34:28.966Z,14.70
2023-05-05T05:35:35.027Z,14.80
2023-05-05T05:36:30.875Z,15.50
2023-05-05T05:37:30.382Z,14.10
2023-05-05T05:38:28.316Z,15.00
2023-05-05T05:39:29.954Z,13.70
2023-05-05T05:40:28.365Z,14.60
2023-05-05T05:41:28.346Z,13.30
2023-05-05T05:42:30.749Z,14.30
2023-05-05T05:43:32.629Z,14.10
2023-05-05T05:44:28.232Z,14.30
2023-05-05T05:45:28.349Z,14.00
2023-05-05T05:46:28.464Z,14.10
2023-05-05T05:47:28.329Z,15.10
2023-05-05T05:48:28.651Z,13.50
2023-05-05T05:49:28.199Z,16.40
2023-05-05T05:50:28.160Z,14.00
2023-05-05T05:51:28.135Z,13.00
2023-05-05T05:52:28.164Z,13.20
2023-05-05T05:53:28.272Z,13.10
2023-05-05T05:54:29.106Z,15.50
2023-05-05T05:55:28.143Z,14.40
2023-05-05T05:56:28.230Z,14.70
2023-05-05T05:57:28.135Z,14.60
2023-05-05T05:58:28.630Z,13.90
2023-05-05T05:59:28.116Z,14.80
2023-05-05T06:00:28.052Z,16.10
2023-05-05T06:01:28.152Z,14.30
2023-05-05T06:02:28.236Z,15.10
2023-05-05T06:03:28.893Z,15.10
2023-05-05T06:04:31.084Z,16.50
2023-05-05T06:05:29.431Z,16.10
2023-05-05T06:06:32.782Z,14.80
2023-05-05T06:07:28.170Z,13.30
2023-05-05T06:08:28.518Z,14.30
2023-05-05T06:09:28.262Z,14.20
2023-05-05T06:10:28.584Z,13.90
2023-05-05T06:11:28.284Z,14.10
2023-05-05T06:12:28.029Z,12.50
2023-05-05T06:13:28.123Z,13.40
2023-05-05T06:14:29.852Z,13.30
2023-05-05T06:15:28.314Z,12.30
2023-05-05T06:16:28.836Z,14.10
2023-05-05T06:17:27.871Z,13.10
2023-05-05T06:18:27.919Z,13.30
2023-05-05T06:19:27.878Z,14.40
2023-05-05T06:20:27.905Z,14.10
2023-05-05T06:21:27.876Z,13.10
2023-05-05T06:22:27.825Z,12.40
2023-05-05T06:23:28.362Z,13.70
2023-05-05T06:24:27.880Z,14.70
2023-05-05T06:25:27.942Z,14.10
2023-05-05T06:26:28.354Z,14.90
2023-05-05T06:27:27.967Z,13.80
2023-05-05T06:28:28.344Z,12.60
2023-05-05T06:29:28.765Z,14.50
2023-05-05T06:30:27.857Z,15.80
2023-05-05T06:31:28.538Z,14.20
2023-05-05T06:32:28.447Z,13.60
2023-05-05T06:33:27.787Z,12.10
2023-05-05T06:34:27.932Z,13.40
2023-05-05T06:35:48.264Z,15.60
2023-05-05T06:36:27.851Z,14.60
2023-05-05T06:37:29.303Z,15.20
2023-05-05T06:38:29.314Z,13.90
2023-05-05T06:39:29.908Z,15.20
2023-05-05T06:40:29.609Z,13.40
2023-05-05T06:41:27.641Z,14.60
2023-05-05T06:42:28.514Z,13.10
2023-05-05T06:43:27.652Z,12.10
2023-05-05T06:44:27.743Z,12.70
2023-05-05T06:45:27.686Z,13.80
2023-05-05T06:46:27.668Z,12.50
2023-05-05T06:47:27.708Z,13.90
2023-05-05T06:48:28.070Z,12.80
2023-05-05T06:49:27.703Z,13.30
2023-05-05T06:50:28.263Z,13.50
2023-05-05T06:51:29.864Z,14.70
2023-05-05T06:52:27.559Z,13.60
2023-05-05T06:53:27.548Z,14.60
2023-05-05T06:54:28.869Z,13.10
2023-05-05T06:55:27.810Z,14.00
2023-05-05T06:56:27.444Z,15.60
2023-05-05T06:57:27.543Z,16.40
2023-05-05T06:58:28.281Z,19.60
2023-05-05T06:59:27.439Z,15.80
2023-05-05T07:12:23.548Z,90.90
2023-05-05T07:17:15.392Z,188.40
2023-05-05T07:18:15.040Z,220.00
2023-05-05T07:19:15.822Z,212.40
2023-05-05T07:20:13.604Z,225.40
2023-05-05T07:24:14.620Z,229.40
2023-05-05T07:25:15.790Z,243.00
2023-05-05T07:26:16.313Z,241.90
2023-05-05T07:33:26.437Z,228.40
2023-05-05T07:34:27.110Z,226.10
2023-05-05T07:35:27.264Z,222.50
2023-05-05T07:36:26.661Z,260.20
2023-05-05T07:37:26.707Z,175.80
2023-05-05T07:38:26.830Z,208.40
2023-05-05T07:39:26.859Z,161.10
2023-05-05T07:40:26.856Z,202.60
2023-05-05T07:41:26.817Z,191.70
2023-05-05T07:42:26.780Z,152.70
2023-05-05T07:43:26.676Z,161.00
2023-05-05T07:44:26.736Z,177.10
2023-05-05T07:45:26.698Z,210.60
2023-05-05T07:46:26.657Z,203.00
2023-05-05T07:47:26.692Z,233.40
2023-05-05T07:48:26.572Z,265.90
2023-05-05T07:49:26.873Z,218.00
2023-05-05T07:50:26.757Z,226.80
2023-05-05T07:51:27.008Z,239.80
2023-05-05T07:52:43.724Z,233.40
2023-05-05T07:53:26.557Z,211.20
2023-05-05T07:54:26.905Z,192.10
2023-05-05T07:55:26.481Z,201.70
2023-05-05T07:56:26.558Z,187.80
2023-05-05T07:57:26.451Z,178.60
2023-05-05T07:58:27.619Z,228.10
2023-05-05T07:59:26.541Z,190.10
2023-05-05T08:00:26.643Z,236.20
2023-05-05T08:01:27.056Z,217.90
2023-05-05T08:02:26.527Z,214.40
2023-05-05T08:03:27.070Z,242.40
2023-05-05T08:04:26.513Z,211.90
2023-05-05T08:05:26.786Z,212.60
2023-05-05T08:06:26.756Z,188.00
2023-05-05T08:07:26.832Z,158.10
2023-05-05T08:08:26.805Z,169.40
2023-05-05T08:09:27.663Z,121.10
2023-05-05T08:10:26.339Z,119.80
2023-05-05T08:12:27.116Z,146.50
2023-05-05T08:13:26.770Z,123.30
2023-05-05T08:14:29.478Z,117.90
2023-05-05T08:15:30.129Z,129.10
2023-05-05T08:16:28.511Z,106.70
2023-05-05T08:17:31.387Z,106.50
2023-05-05T08:18:27.415Z,97.50
2023-05-05T08:19:29.231Z,100.20
2023-05-05T08:20:27.472Z,93.70
2023-05-05T08:21:32.175Z,71.20
2023-05-05T08:22:26.920Z,84.10
2023-05-05T08:23:26.625Z,72.60
2023-05-05T08:24:26.754Z,84.60
2023-05-05T08:25:26.366Z,97.20
2023-05-05T08:26:26.491Z,106.90
2023-05-05T08:27:26.275Z,101.50
2023-05-05T08:28:26.349Z,115.90
2023-05-05T08:29:26.258Z,84.80
2023-05-05T08:30:26.718Z,77.20
2023-05-05T08:31:26.522Z,103.00
2023-05-05T08:32:27.847Z,89.50
2023-05-05T08:33:26.186Z,92.60
2023-05-05T08:34:26.092Z,67.60
2023-05-05T08:35:26.397Z,78.30
2023-05-05T08:36:26.067Z,92.50
2023-05-05T08:37:26.136Z,84.70
2023-05-05T08:38:26.114Z,83.40
2023-05-05T08:39:26.040Z,63.10
2023-05-05T08:40:26.061Z,74.90
2023-05-05T08:41:26.054Z,59.50
2023-05-05T08:42:36.386Z,57.80
2023-05-05T08:43:25.969Z,54.90
2023-05-05T08:44:26.011Z,56.40
2023-05-05T08:45:26.592Z,51.90
2023-05-05T08:46:26.152Z,56.40
2023-05-05T08:47:29.279Z,48.50
2023-05-05T08:48:26.268Z,48.70
2023-05-05T08:49:26.090Z,56.40
2023-05-05T08:50:25.959Z,57.80
2023-05-05T08:51:26.007Z,52.70
2023-05-05T08:52:27.181Z,45.80
2023-05-05T08:53:31.656Z,49.30
2023-05-05T08:54:26.508Z,51.80
2023-05-05T08:55:28.084Z,38.80
2023-05-05T08:56:26.106Z,45.60
2023-05-05T08:57:26.044Z,42.60
2023-05-05T08:58:27.657Z,56.40
2023-05-05T08:59:26.218Z,58.50
2023-05-05T09:00:26.572Z,57.50
2023-05-05T09:01:28.668Z,55.00
2023-05-05T09:02:27.143Z,44.50
2023-05-05T09:03:26.942Z,45.20
2023-05-05T09:04:26.529Z,44.40
2023-05-05T09:05:25.777Z,42.90
2023-05-05T09:06:29.664Z,40.20
2023-05-05T09:07:26.850Z,47.90
2023-05-05T09:08:26.932Z,47.90
2023-05-05T09:09:26.803Z,40.80
2023-05-05T09:10:25.974Z,37.00
2023-05-05T09:11:34.281Z,32.10
2023-05-05T09:12:25.809Z,29.20
2023-05-05T09:13:26.727Z,29.50
2023-05-05T09:14:25.690Z,28.80
2023-05-05T09:15:25.615Z,26.30
2023-05-05T09:16:25.634Z,29.00
2023-05-05T09:17:34.014Z,29.80
2023-05-05T09:18:25.579Z,26.10
2023-05-05T09:19:25.535Z,26.00
2023-05-05T09:20:25.530Z,26.40
2023-05-05T09:21:25.535Z,25.40
2023-05-05T09:22:25.535Z,26.50
2023-05-05T09:23:25.485Z,25.00
2023-05-05T09:24:25.504Z,24.60
2023-05-05T09:25:25.466Z,25.80
2023-05-05T09:26:25.467Z,23.70
2023-05-05T09:27:25.582Z,23.20
2023-05-05T09:28:25.456Z,23.50
2023-05-05T09:29:25.433Z,23.90
2023-05-05T09:30:25.421Z,26.30
2023-05-05T09:31:25.563Z,27.20
2023-05-05T09:32:25.555Z,23.20
2023-05-05T09:33:25.394Z,23.90
2023-05-05T09:34:25.608Z,21.70
2023-05-05T09:35:25.379Z,23.20
2023-05-05T09:36:25.425Z,21.10
2023-05-05T09:37:25.362Z,21.40
2023-05-05T09:38:25.358Z,20.30
2023-05-05T09:39:25.370Z,20.60
2023-05-05T09:40:25.347Z,20.00
2023-05-05T09:41:25.372Z,20.80
2023-05-05T09:42:25.348Z,20.80
2023-05-05T09:43:25.321Z,21.10
2023-05-05T09:44:25.296Z,22.70
2023-05-05T09:45:25.339Z,21.70
2023-05-05T09:46:25.356Z,20.00
2023-05-05T09:47:29.491Z,20.30
2023-05-05T09:48:25.275Z,20.10
2023-05-05T09:49:25.241Z,21.10
2023-05-05T09:50:25.267Z,21.30
2023-05-05T09:51:25.205Z,19.20
2023-05-05T09:52:25.222Z,19.40
2023-05-05T09:53:25.212Z,19.20
2023-05-05T09:54:25.273Z,19.50
2023-05-05T09:55:25.228Z,21.30
2023-05-05T09:56:25.155Z,21.30
2023-05-05T09:57:25.144Z,19.60
2023-05-05T09:58:25.194Z,20.30
2023-05-05T09:59:25.164Z,19.20
2023-05-05T10:00:25.150Z,19.20
2023-05-05T10:01:25.117Z,21.40
2023-05-05T10:02:25.139Z,19.20
2023-05-05T10:03:25.108Z,21.10
2023-05-05T10:04:25.188Z,19.10
2023-05-05T10:05:25.212Z,19.90
2023-05-05T10:06:25.057Z,19.50
2023-05-05T10:07:25.101Z,19.70
2023-05-05T10:08:25.036Z,19.70
2023-05-05T10:09:25.050Z,20.00
2023-05-05T10:10:26.053Z,18.70
2023-05-05T10:11:24.998Z,18.80
2023-05-05T10:12:24.988Z,20.00
2023-05-05T10:13:24.997Z,20.10
2023-05-05T10:14:25.026Z,19.80
2023-05-05T10:15:24.963Z,20.10
2023-05-05T10:16:26.299Z,20.70
2023-05-05T10:17:24.969Z,20.70
2023-05-05T10:18:25.058Z,20.10
2023-05-05T10:19:24.915Z,18.40
2023-05-05T10:20:24.925Z,20.10
2023-05-05T10:21:24.893Z,18.80
2023-05-05T10:22:24.888Z,20.00
2023-05-05T10:23:24.947Z,20.60
2023-05-05T10:24:24.894Z,19.80
2023-05-05T10:25:24.868Z,18.40
2023-05-05T10:26:24.852Z,19.80
2023-05-05T10:27:24.879Z,19.50
2023-05-05T10:28:24.868Z,18.30
2023-05-05T10:29:24.846Z,19.10
2023-05-05T10:30:24.822Z,19.90
2023-05-05T10:31:26.411Z,18.00
2023-05-05T10:32:51.176Z,19.50
2023-05-05T10:34:24.838Z,18.80
2023-05-05T10:35:24.770Z,17.30
2023-05-05T10:36:24.762Z,17.00
2023-05-05T10:37:24.785Z,17.70
2023-05-05T10:38:26.641Z,17.10
2023-05-05T10:39:24.738Z,17.60
2023-05-05T10:40:24.736Z,18.10
2023-05-05T10:41:24.736Z,17.30
2023-05-05T10:42:24.746Z,16.80
2023-05-05T10:43:24.717Z,16.50
2023-05-05T10:44:24.721Z,16.20
2023-05-05T10:45:24.807Z,16.90
2023-05-05T10:46:24.773Z,17.00
2023-05-05T10:47:24.732Z,17.10
2023-05-05T10:48:24.684Z,17.80
2023-05-05T10:49:24.648Z,17.40
2023-05-05T10:50:24.642Z,16.60
2023-05-05T10:51:38.360Z,15.70
2023-05-05T10:52:24.637Z,16.20
2023-05-05T10:53:24.615Z,16.90
2023-05-05T10:54:24.662Z,17.30
2023-05-05T10:55:24.638Z,17.00
2023-05-05T10:56:24.618Z,17.20
2023-05-05T10:57:24.559Z,15.70
2023-05-05T10:58:24.557Z,16.30
2023-05-05T10:59:24.595Z,17.70
2023-05-05T11:00:24.594Z,17.50
2023-05-05T11:01:24.660Z,17.80
2023-05-05T11:02:24.594Z,15.50
2023-05-05T11:03:24.639Z,16.30
2023-05-05T11:04:24.513Z,16.70
2023-05-05T11:05:24.550Z,16.30
2023-05-05T11:06:24.489Z,18.40
2023-05-05T11:07:24.481Z,15.30
2023-05-05T11:08:24.821Z,15.30
2023-05-05T11:09:25.450Z,15.30
2023-05-05T11:10:24.597Z,16.10
2023-05-05T11:11:24.432Z,13.70
2023-05-05T11:12:24.527Z,15.00
2023-05-05T11:13:24.591Z,14.80
2023-05-05T11:14:24.461Z,15.70
2023-05-05T11:15:24.468Z,15.30
2023-05-05T11:16:24.477Z,15.40
2023-05-05T11:17:24.453Z,15.20
2023-05-05T11:18:24.397Z,15.50
2023-05-05T11:19:24.377Z,15.80
2023-05-05T11:20:24.361Z,16.50
2023-05-05T11:21:24.435Z,17.00
2023-05-05T11:22:24.330Z,15.60
2023-05-05T11:23:24.363Z,18.50
2023-05-05T11:24:24.495Z,16.00
2023-05-05T11:25:24.294Z,17.70
2023-05-05T11:26:24.378Z,17.10
2023-05-05T11:27:24.329Z,16.60
2023-05-05T11:28:24.301Z,16.40
2023-05-05T11:29:24.270Z,15.50
2023-05-05T11:30:24.309Z,15.40
2023-05-05T11:31:24.320Z,15.50
2023-05-05T11:32:24.267Z,15.60
2023-05-05T11:33:24.244Z,16.50
2023-05-05T11:34:24.229Z,15.50
2023-05-05T11:35:24.191Z,18.10
2023-05-05T11:36:24.185Z,16.00
2023-05-05T11:37:24.219Z,16.70
2023-05-05T11:38:24.279Z,15.00
2023-05-05T11:39:24.238Z,13.70
2023-05-05T11:40:24.235Z,13.70
2023-05-05T11:41:24.135Z,15.50
2023-05-05T11:42:24.134Z,14.20
2023-05-05T11:43:24.120Z,12.90
2023-05-05T11:44:24.127Z,13.60
2023-05-05T11:45:24.106Z,13.80
2023-05-05T11:46:24.172Z,12.40
2023-05-05T11:47:24.116Z,12.40
2023-05-05T11:48:24.089Z,12.80
2023-05-05T11:49:24.084Z,12.60
2023-05-05T11:50:24.084Z,11.90
2023-05-05T11:51:24.049Z,13.30
2023-05-05T11:52:24.051Z,11.70
2023-05-05T11:53:24.091Z,11.80
2023-05-05T11:54:24.010Z,12.30
2023-05-05T11:55:24.022Z,12.20
2023-05-05T11:56:24.055Z,11.50
2023-05-05T11:57:23.991Z,13.10
2023-05-05T11:58:24.012Z,12.70
2023-05-05T11:59:23.976Z,12.50
2023-05-05T12:00:23.942Z,12.40
2023-05-05T12:01:23.942Z,12.30
2023-05-05T12:02:24.047Z,13.80
2023-05-05T12:03:24.111Z,12.00
2023-05-05T12:04:23.975Z,12.20
2023-05-05T12:05:23.920Z,11.70
2023-05-05T12:06:23.889Z,12.20
2023-05-05T12:07:23.904Z,12.80
2023-05-05T12:08:23.854Z,11.60
2023-05-05T12:09:23.871Z,12.20
2023-05-05T12:10:23.859Z,13.60
2023-05-05T12:11:23.838Z,11.80
2023-05-05T12:12:23.829Z,13.60
2023-05-05T12:13:24.080Z,13.60
2023-05-05T12:14:23.818Z,12.80
2023-05-05T12:15:23.874Z,13.70
2023-05-05T12:16:23.791Z,13.30
2023-05-05T12:17:23.840Z,12.80
2023-05-05T12:18:23.762Z,13.30
2023-05-05T12:19:23.823Z,13.10
2023-05-05T12:20:23.749Z,11.80
2023-05-05T12:21:23.749Z,11.70
2023-05-05T12:22:23.759Z,12.20
2023-05-05T12:23:23.725Z,12.70
2023-05-05T12:24:23.766Z,11.80
2023-05-05T12:25:23.699Z,12.90
2023-05-05T12:26:23.688Z,12.90
2023-05-05T12:27:23.665Z,12.30
2023-05-05T12:28:23.696Z,12.40
2023-05-05T12:29:23.675Z,13.70
2023-05-05T12:30:23.716Z,12.20
2023-05-05T12:31:23.664Z,12.40
2023-05-05T12:32:23.696Z,12.50
2023-05-05T12:33:23.658Z,11.00
2023-05-05T12:34:23.609Z,11.60
2023-05-05T12:35:23.615Z,12.40
2023-05-05T12:36:23.580Z,13.80
2023-05-05T12:37:23.584Z,14.20
2023-05-05T12:38:23.590Z,14.20
2023-05-05T12:39:23.560Z,13.10
2023-05-05T12:40:23.541Z,14.80
2023-05-05T12:41:23.574Z,13.90
2023-05-05T12:42:23.545Z,15.30
2023-05-05T12:43:23.519Z,14.20
2023-05-05T12:44:23.522Z,15.80
2023-05-05T12:45:23.498Z,15.40
2023-05-05T12:46:23.594Z,15.50
2023-05-05T12:47:23.510Z,15.30
2023-05-05T12:48:23.528Z,14.90
2023-05-05T12:49:23.467Z,15.60
2023-05-05T12:50:23.467Z,17.60
2023-05-05T12:51:23.660Z,16.00
2023-05-05T12:52:23.454Z,15.30
2023-05-05T12:53:23.433Z,15.40
2023-05-05T12:54:23.425Z,17.20
2023-05-05T12:55:23.433Z,17.60
2023-05-05T12:56:23.421Z,20.00
2023-05-05T12:57:23.418Z,19.60
2023-05-05T12:58:23.384Z,19.70
2023-05-05T12:59:23.404Z,18.40
2023-05-05T13:00:23.357Z,18.70
2023-05-05T13:01:23.508Z,21.30
2023-05-05T13:02:23.383Z,20.90
2023-05-05T13:03:23.497Z,20.00
2023-05-05T13:04:23.396Z,20.00
2023-05-05T13:05:23.322Z,20.20
2023-05-05T13:06:23.295Z,20.10
2023-05-05T13:07:23.283Z,20.40
2023-05-05T13:08:23.278Z,21.30
2023-05-05T13:09:23.253Z,20.40
2023-05-05T13:10:23.273Z,21.90
2023-05-05T13:11:23.239Z,20.60
2023-05-05T13:12:23.909Z,19.70
2023-05-05T13:13:23.205Z,21.70
2023-05-05T13:14:23.188Z,18.90
2023-05-05T13:15:23.201Z,20.40
2023-05-05T13:16:23.201Z,19.80
2023-05-05T13:17:23.181Z,19.20
2023-05-05T13:18:23.231Z,21.30
2023-05-05T13:19:23.150Z,20.20